createdAt,value
2022-11-16T09:17:02.649Z,99436.40
2022-11-16T09:19:32.676Z,99437.93
2022-11-16T09:22:03.226Z,99439.14
2022-11-16T09:24:32.782Z,99435.54
2022-11-16T09:27:01.937Z,99436.48
2022-11-16T09:29:30.618Z,99434.83
2022-11-16T09:31:58.087Z,99437.48
2022-11-16T09:34:25.857Z,99434.09
2022-11-16T09:36:54.112Z,99434.30
2022-11-16T09:39:37.088Z,99429.10
2022-11-16T09:42:21.147Z,99428.39
2022-11-16T09:44:59.691Z,99427.02
2022-11-16T09:47:43.047Z,99425.45
2022-11-16T09:50:48.390Z,99428.04
2022-11-16T09:53:35.068Z,99426.65
2022-11-16T09:56:10.590Z,99415.54
2022-11-16T09:58:49.168Z,99412.75
2022-11-16T21:59:10.483Z,99291.36
2022-11-16T22:01:55.777Z,99292.77
2022-11-16T22:04:44.687Z,99288.06
2022-11-16T22:07:39.493Z,99292.75
2022-11-16T22:11:48.584Z,99298.78
2022-11-16T22:14:20.323Z,99298.44
2022-11-16T22:16:52.978Z,99297.77
2022-11-16T22:19:26.574Z,99297.95
2022-11-16T22:24:22.217Z,99290.67
2022-11-16T22:26:58.479Z,99295.20
2022-11-16T22:29:36.704Z,99298.36
2022-11-16T22:32:18.410Z,99302.35
2022-11-16T22:34:53.297Z,99307.03
2022-11-16T22:37:24.623Z,99303.23
2022-11-16T22:40:00.164Z,99305.84
2022-11-16T22:42:49.308Z,99302.38
2022-11-16T22:45:23.722Z,99304.31
2022-11-16T22:47:56.812Z,99309.84
2022-11-16T22:50:28.591Z,99308.80
2022-11-16T22:53:04.992Z,99310.02
2022-11-16T22:59:09.891Z,99306.70
2022-11-16T23:01:41.420Z,99310.36
2022-11-16T23:04:15.145Z,99305.52
2022-11-16T23:08:32.799Z,99303.58
2022-11-16T23:11:24.856Z,99300.66
2022-11-16T23:15:54.715Z,99295.44
2022-11-16T23:18:35.241Z,99293.88
2022-11-16T23:21:24.408Z,99296.14
2022-11-16T23:24:32.842Z,99294.37
2022-11-16T23:27:23.152Z,99289.03
2022-11-16T23:29:58.279Z,99289.04
2022-11-16T23:32:31.142Z,99284.55
2022-11-16T23:35:05.226Z,99286.80
2022-11-16T23:37:37.902Z,99289.59
2022-11-16T23:40:14.145Z,99287.15
2022-11-16T23:43:02.814Z,99286.63
2022-11-16T23:45:39.040Z,99285.08
2022-11-16T23:48:13.205Z,99277.10
2022-11-16T23:52:57.632Z,99269.10
2022-11-16T23:55:29.639Z,99264.79
2022-11-16T23:58:02.231Z,99259.94
